This is the latest recevied weather packets stored in our database for station/object DB0LHR-6. If no packets are shown the sender has not sent any weather packets the latest 10 day(s).
| Time | Temp. | Humidity | Pressure | Rain* | Wind** | Luminosity | Snow |
|---|---|---|---|---|---|---|---|
| 1778294116 | 11.11° C | 78% | 1016 hPa | 0 mm | - | - | - |
| 1778293216 | 11.11° C | 76% | 1016 hPa | 0 mm | - | - | - |
| 1778292316 | 11.11° C | 76% | 1016 hPa | 0 mm | - | - | - |
| 1778291416 | 11.11° C | 75% | 1016 hPa | 0 mm | - | - | - |
| 1778290516 | 11.11° C | 75% | 1016 hPa | 0 mm | - | - | - |
| 1778289616 | 11.67° C | 74% | 1016 hPa | 0 mm | - | - | - |
| 1778288716 | 11.67° C | 72% | 1016 hPa | 0 mm | - | - | - |
| 1778287816 | 12.22° C | 72% | 1016 hPa | 0 mm | - | - | - |
| 1778286916 | 12.78° C | 72% | 1016 hPa | 0 mm | - | - | - |
| 1778286016 | 12.78° C | 73% | 1016 hPa | 0 mm | - | - | - |
| 1778285116 | 12.78° C | 74% | 1016 hPa | 0 mm | - | - | - |
| 1778284216 | 12.78° C | 73% | 1016 hPa | 0 mm | - | - | - |
| 1778283316 | 12.78° C | 72% | 1016 hPa | 0 mm | - | - | - |
| 1778282416 | 13.33° C | 69% | 1016 hPa | 0 mm | - | - | - |
| 1778281516 | 13.89° C | 67% | 1016 hPa | 0 mm | - | - | - |
| 1778280616 | 13.33° C | 68% | 1016 hPa | 0 mm | - | - | - |
| 1778279716 | 13.89° C | 65% | 1016 hPa | 0 mm | - | - | - |
| 1778278816 | 13.89° C | 65% | 1016 hPa | 0 mm | - | - | - |
| 1778277916 | 13.89° C | 66% | 1016 hPa | 0 mm | - | - | - |
| 1778277016 | 14.44° C | 62% | 1016 hPa | 0 mm | - | - | - |
| 1778276116 | 14.44° C | 63% | 1016 hPa | 0 mm | - | - | - |
| 1778275216 | 14.44° C | 65% | 1016 hPa | 0 mm | - | - | - |
| 1778274316 | 13.89° C | 66% | 1016 hPa | 0 mm | - | - | - |
| 1778273416 | 13.89° C | 67% | 1016 hPa | 0 mm | - | - | - |
| 1778272516 | 13.89° C | 65% | 1016 hPa | 0 mm | - | - | - |
* Rain latest 24 hours (hover to see other rain measurements)
** Current wind speed in m/s (hover to see current wind gust speed)